Time;durP1;ratioP1;P1;durP2;ratioP2;P2;SDS_P1;SDS_P2;PMS_P1;PMS_P2;Temp;Humidity;BMP_temperature;BMP_pressure;BME280_temperature;BME280_humidity;BME280_pressure;Samples;Min_cycle;Max_cycle;Signal;HPM_P1;HPM_P2
2022/07/07 00:02:39;;;;;;;1.45;0.82;;;26.30;36.90;;;;;;6102043;29;20350;-75
2022/07/07 00:05:40;;;;;;;4.95;0.95;;;26.20;37.00;;;;;;6131377;28;20024;-75
2022/07/07 00:08:41;;;;;;;4.20;0.90;;;26.20;37.00;;;;;;6135991;28;20124;-74
2022/07/07 00:11:42;;;;;;;2.25;0.90;;;26.20;37.10;;;;;;6133474;29;20077;-74
2022/07/07 00:14:43;;;;;;;1.30;0.82;;;26.20;37.10;;;;;;6134150;29;20385;-77
2022/07/07 00:17:44;;;;;;;1.75;0.88;;;26.20;37.10;;;;;;6125553;28;20091;-75
2022/07/07 00:20:45;;;;;;;2.17;1.10;;;26.10;37.10;;;;;;6141834;28;20438;-75
2022/07/07 00:23:46;;;;;;;2.50;1.08;;;26.10;37.10;;;;;;6158395;28;20187;-76
2022/07/07 00:26:47;;;;;;;1.83;0.82;;;26.00;37.10;;;;;;6141158;28;20031;-76
2022/07/07 00:29:48;;;;;;;1.48;0.98;;;26.00;37.10;;;;;;6153714;28;20356;-76
2022/07/07 00:32:49;;;;;;;1.10;0.90;;;26.00;37.20;;;;;;6154059;28;20086;-76
2022/07/07 00:35:51;;;;;;;0.80;0.80;;;26.00;37.20;;;;;;6169524;28;20391;-76
2022/07/07 00:38:51;;;;;;;0.88;0.80;;;26.00;37.20;;;;;;6131262;28;20463;-75
2022/07/07 00:41:52;;;;;;;1.40;0.90;;;26.00;37.30;;;;;;6156153;28;20043;-76
2022/07/07 00:44:53;;;;;;;3.15;0.90;;;26.00;37.50;;;;;;6149480;28;20052;-76
2022/07/07 00:47:54;;;;;;;1.77;0.75;;;26.00;37.60;;;;;;6144292;28;20111;-75
2022/07/07 00:50:55;;;;;;;3.40;0.90;;;25.90;37.80;;;;;;6156453;28;20567;-75
2022/07/07 00:53:56;;;;;;;1.55;0.90;;;25.90;38.00;;;;;;6147909;28;20031;-75
2022/07/07 00:56:57;;;;;;;2.90;0.95;;;25.90;38.00;;;;;;6153903;28;20035;-75
2022/07/07 01:00:01;;;;;;;1.40;0.90;;;25.80;37.90;;;;;;6143643;28;20028;-75
2022/07/07 01:03:03;;;;;;;2.08;0.80;;;25.80;38.00;;;;;;6146450;28;20380;-74
2022/07/07 01:06:04;;;;;;;2.42;1.10;;;25.80;38.00;;;;;;6159843;28;20045;-75
2022/07/07 01:09:05;;;;;;;2.90;1.00;;;25.80;38.10;;;;;;6146104;28;20431;-75
2022/07/07 01:12:09;;;;;;;5.65;0.90;;;25.70;38.20;;;;;;6147090;28;20031;-76
2022/07/07 01:15:11;;;;;;;11.90;1.10;;;25.70;38.20;;;;;;6144844;28;20117;-76
2022/07/07 01:18:12;;;;;;;1.60;0.82;;;25.70;38.20;;;;;;6145814;28;20050;-74
2022/07/07 01:21:18;;;;;;;2.50;0.95;;;25.70;38.30;;;;;;6141569;28;20094;-74
2022/07/07 01:24:22;;;;;;;1.42;1.00;;;25.60;38.30;;;;;;6128511;28;20031;-74
2022/07/07 01:27:23;;;;;;;3.60;0.93;;;25.60;38.40;;;;;;6152675;28;20047;-75
2022/07/07 01:30:24;;;;;;;2.28;1.00;;;25.60;38.30;;;;;;6155266;28;20027;-75
2022/07/07 01:33:25;;;;;;;2.33;0.80;;;25.50;38.20;;;;;;6124238;28;20085;-75
2022/07/07 01:36:26;;;;;;;2.15;0.88;;;25.40;38.20;;;;;;6125975;28;20035;-75
2022/07/07 01:39:27;;;;;;;2.15;0.80;;;25.30;38.50;;;;;;6148422;28;20106;-75
2022/07/07 01:42:29;;;;;;;1.08;0.90;;;25.20;38.70;;;;;;6146984;28;20045;-75
2022/07/07 01:45:30;;;;;;;2.70;1.00;;;25.20;38.90;;;;;;6125431;28;20031;-76
2022/07/07 01:48:32;;;;;;;0.73;0.73;;;25.20;38.90;;;;;;6143973;28;20035;-76
2022/07/07 01:51:33;;;;;;;1.27;0.85;;;25.20;38.90;;;;;;6160744;28;20058;-74
2022/07/07 01:54:36;;;;;;;0.80;0.80;;;25.20;38.90;;;;;;6144285;28;20034;-75
2022/07/07 01:57:37;;;;;;;1.10;0.95;;;25.20;38.80;;;;;;6140408;28;20028;-75
2022/07/07 02:00:38;;;;;;;1.65;1.00;;;25.10;38.90;;;;;;6150208;28;20038;-75
2022/07/07 02:03:39;;;;;;;1.52;0.75;;;24.90;39.20;;;;;;6147902;28;20043;-75
2022/07/07 02:06:40;;;;;;;1.85;1.00;;;24.90;39.40;;;;;;6141524;28;20118;-75
2022/07/07 02:09:41;;;;;;;2.58;0.85;;;24.90;39.40;;;;;;6155276;28;20031;-75
2022/07/07 02:12:42;;;;;;;2.85;0.93;;;24.90;39.40;;;;;;6157467;28;20059;-74
2022/07/07 02:15:43;;;;;;;1.63;0.80;;;24.70;39.60;;;;;;6160576;28;20030;-75
2022/07/07 02:18:46;;;;;;;2.78;0.80;;;24.50;39.80;;;;;;6163702;28;20385;-75
2022/07/07 02:21:46;;;;;;;1.33;0.90;;;24.40;40.10;;;;;;6136781;28;20118;-74
2022/07/07 02:24:47;;;;;;;1.48;0.93;;;24.30;40.30;;;;;;6156600;28;20480;-75
2022/07/07 02:27:49;;;;;;;4.82;1.00;;;24.20;40.30;;;;;;6168319;28;20015;-74
2022/07/07 02:30:51;;;;;;;2.13;1.02;;;24.10;40.50;;;;;;6140879;28;20027;-74
2022/07/07 02:33:52;;;;;;;3.10;1.17;;;23.90;40.70;;;;;;6139968;28;20050;-75
2022/07/07 02:36:53;;;;;;;2.42;0.93;;;23.80;40.80;;;;;;6140538;28;20039;-74
2022/07/07 02:39:54;;;;;;;3.28;1.00;;;23.70;40.90;;;;;;6157965;28;20369;-75
2022/07/07 02:42:56;;;;;;;2.30;0.77;;;23.60;41.00;;;;;;6145292;28;20031;-75
2022/07/07 02:45:57;;;;;;;4.85;1.08;;;23.60;41.00;;;;;;6155924;28;20030;-76
2022/07/07 02:48:57;;;;;;;1.65;1.05;;;23.50;41.00;;;;;;6155949;28;20408;-74
2022/07/07 02:51:58;;;;;;;1.13;0.80;;;23.50;41.10;;;;;;6155095;28;20158;-75
2022/07/07 02:54:59;;;;;;;1.73;0.70;;;23.50;41.10;;;;;;6123798;28;20035;-75
2022/07/07 02:58:01;;;;;;;1.35;0.80;;;23.60;41.20;;;;;;6140851;28;20445;-75
2022/07/07 03:01:02;;;;;;;4.53;0.88;;;23.60;41.20;;;;;;6141098;28;20031;-75
2022/07/07 03:04:03;;;;;;;3.80;1.00;;;23.70;40.90;;;;;;6144665;28;20102;-75
2022/07/07 03:07:04;;;;;;;3.45;1.20;;;23.70;40.90;;;;;;6145453;28;20035;-75
2022/07/07 03:10:08;;;;;;;5.78;1.00;;;23.50;41.10;;;;;;6137225;28;20027;-75
2022/07/07 03:13:09;;;;;;;3.35;0.65;;;23.50;41.40;;;;;;6154254;28;20035;-75
2022/07/07 03:16:10;;;;;;;1.88;0.90;;;23.60;41.30;;;;;;6139555;28;20027;-75
2022/07/07 03:19:11;;;;;;;3.20;0.82;;;23.60;41.20;;;;;;6141406;28;20051;-75
2022/07/07 03:22:12;;;;;;;4.20;1.05;;;23.70;41.10;;;;;;6139118;28;20427;-75
2022/07/07 03:25:15;;;;;;;4.30;1.02;;;23.70;40.90;;;;;;6131516;28;20411;-74
2022/07/07 03:28:16;;;;;;;2.33;0.75;;;23.80;40.80;;;;;;6147356;28;20379;-74
2022/07/07 03:31:17;;;;;;;2.75;1.08;;;23.80;40.70;;;;;;6153807;28;20090;-74
2022/07/07 03:34:18;;;;;;;6.32;0.98;;;23.80;40.60;;;;;;6143843;28;20027;-75
2022/07/07 03:37:19;;;;;;;3.72;0.77;;;23.60;40.80;;;;;;6142130;28;20043;-75
2022/07/07 03:40:19;;;;;;;2.42;1.00;;;23.50;41.30;;;;;;6145147;28;20368;-75
2022/07/07 03:43:20;;;;;;;2.95;1.05;;;23.50;41.40;;;;;;6139828;28;20038;-75
2022/07/07 03:46:21;;;;;;;8.45;1.45;;;23.50;41.10;;;;;;6152789;28;20059;-74
2022/07/07 03:49:22;;;;;;;4.97;1.30;;;23.40;41.10;;;;;;6124524;28;20035;-75
2022/07/07 03:52:24;;;;;;;9.18;1.27;;;23.40;41.20;;;;;;6124205;28;20101;-75
2022/07/07 03:55:25;;;;;;;9.55;1.50;;;23.40;41.10;;;;;;6167259;28;20022;-75
2022/07/07 03:58:26;;;;;;;5.30;0.85;;;23.40;41.10;;;;;;6153042;28;20024;-75
2022/07/07 04:01:27;;;;;;;6.28;1.13;;;23.40;41.10;;;;;;6144112;28;20452;-74
2022/07/07 04:04:28;;;;;;;3.05;1.00;;;23.40;41.00;;;;;;6152361;28;20027;-76
2022/07/07 04:07:29;;;;;;;5.88;0.90;;;23.40;41.00;;;;;;6141792;28;20054;-76
2022/07/07 04:10:30;;;;;;;5.03;1.27;;;23.30;41.00;;;;;;6144193;28;20035;-75
2022/07/07 04:13:31;;;;;;;2.42;0.80;;;23.30;41.20;;;;;;6143237;28;20027;-75
2022/07/07 04:16:33;;;;;;;4.70;0.90;;;23.30;40.90;;;;;;6151840;28;20061;-75
2022/07/07 04:19:34;;;;;;;1.65;0.80;;;23.30;40.80;;;;;;6157018;28;20444;-74
2022/07/07 04:22:35;;;;;;;2.22;0.80;;;23.20;40.80;;;;;;6171063;28;20023;-75
2022/07/07 04:25:36;;;;;;;2.20;0.77;;;23.30;40.90;;;;;;6129453;28;20074;-76
2022/07/07 04:28:37;;;;;;;1.85;0.90;;;23.40;40.80;;;;;;6156626;28;20046;-75
2022/07/07 04:31:43;;;;;;;2.05;0.60;;;23.40;40.50;;;;;;6159429;28;20031;-75
2022/07/07 04:34:44;;;;;;;7.43;1.08;;;23.30;40.60;;;;;;6150741;28;20110;-76
2022/07/07 04:37:45;;;;;;;6.50;0.82;;;23.30;40.70;;;;;;6156668;28;20033;-75
2022/07/07 04:40:46;;;;;;;2.58;0.90;;;23.30;40.80;;;;;;6158624;28;20027;-75
2022/07/07 04:43:46;;;;;;;2.35;1.02;;;23.30;40.60;;;;;;6147121;28;20042;-75
2022/07/07 04:46:47;;;;;;;1.13;0.98;;;23.40;40.50;;;;;;6163337;28;20024;-76
2022/07/07 04:49:51;;;;;;;10.75;1.25;;;23.40;40.40;;;;;;6147522;28;20126;-75
2022/07/07 04:52:52;;;;;;;4.68;1.10;;;23.50;40.50;;;;;;6154220;28;20042;-75
2022/07/07 04:55:53;;;;;;;2.90;1.10;;;23.50;40.40;;;;;;6142907;28;20043;-75
2022/07/07 04:58:55;;;;;;;2.78;1.00;;;23.50;40.30;;;;;;6162417;28;20360;-74
2022/07/07 05:01:56;;;;;;;2.72;0.90;;;23.50;40.20;;;;;;6149355;28;20098;-74
2022/07/07 05:04:57;;;;;;;9.77;1.30;;;23.50;40.30;;;;;;6132235;28;20045;-75
2022/07/07 05:07:58;;;;;;;7.47;1.15;;;23.40;40.20;;;;;;6162281;28;20027;-76
2022/07/07 05:10:59;;;;;;;1.35;0.80;;;23.40;40.10;;;;;;6155656;28;20074;-75
2022/07/07 05:14:00;;;;;;;1.98;1.00;;;23.40;40.20;;;;;;6155719;28;20093;-76
2022/07/07 05:17:01;;;;;;;7.88;1.02;;;23.20;40.50;;;;;;6148932;28;20027;-77
2022/07/07 05:20:03;;;;;;;20.73;1.67;;;23.00;40.80;;;;;;6156156;28;20100;-76
2022/07/07 05:23:04;;;;;;;12.13;1.10;;;23.00;41.00;;;;;;6165055;28;20031;-76
2022/07/07 05:26:05;;;;;;;1.88;1.20;;;23.00;41.10;;;;;;6176271;28;20037;-75
2022/07/07 05:29:06;;;;;;;9.95;1.23;;;22.80;41.30;;;;;;6176169;28;20464;-75
2022/07/07 05:32:09;;;;;;;17.13;1.30;;;22.80;41.60;;;;;;6156767;28;20058;-75
2022/07/07 05:35:10;;;;;;;1.27;0.95;;;22.70;41.80;;;;;;6174467;28;20039;-74
2022/07/07 05:38:11;;;;;;;14.82;1.30;;;22.70;42.10;;;;;;6133048;28;20033;-75
2022/07/07 05:41:12;;;;;;;3.83;1.02;;;22.70;42.00;;;;;;6173460;28;20099;-75
2022/07/07 05:44:13;;;;;;;1.83;1.02;;;22.90;41.90;;;;;;6159719;28;20108;-77
2022/07/07 05:47:14;;;;;;;5.53;1.17;;;23.00;41.90;;;;;;6176286;28;20113;-75
2022/07/07 05:50:15;;;;;;;8.25;1.45;;;23.10;41.80;;;;;;6180393;28;20356;-74
2022/07/07 05:53:17;;;;;;;1.88;0.90;;;23.20;41.70;;;;;;6158881;28;20150;-75
2022/07/07 05:56:18;;;;;;;4.82;1.00;;;23.30;41.60;;;;;;6174423;28;20041;-76
2022/07/07 05:59:19;;;;;;;4.00;0.90;;;23.30;41.70;;;;;;6166883;28;20027;-75
2022/07/07 06:02:20;;;;;;;4.00;1.00;;;23.30;41.80;;;;;;6161817;28;20058;-75
2022/07/07 06:05:22;;;;;;;6.32;1.48;;;23.40;41.70;;;;;;6152601;28;20116;-75
2022/07/07 06:08:23;;;;;;;5.30;1.30;;;23.40;41.50;;;;;;6178018;28;20379;-74
2022/07/07 06:11:25;;;;;;;13.80;1.50;;;23.30;42.20;;;;;;6160519;28;20118;-74
2022/07/07 06:14:28;;;;;;;4.90;1.30;;;23.40;41.70;;;;;;6167440;28;20035;-75
2022/07/07 06:17:29;;;;;;;5.45;1.23;;;23.50;41.60;;;;;;6161711;28;20118;-74
2022/07/07 06:20:31;;;;;;;5.22;0.85;;;23.60;41.50;;;;;;6130927;28;20507;-75
2022/07/07 06:23:32;;;;;;;1.88;0.80;;;23.70;41.40;;;;;;6125763;28;20050;-76
2022/07/07 06:26:33;;;;;;;8.38;1.15;;;23.60;41.30;;;;;;6142975;28;20121;-77
2022/07/07 06:29:35;;;;;;;3.08;1.38;;;23.50;41.40;;;;;;6128158;28;20348;-77
2022/07/07 06:32:36;;;;;;;7.13;1.08;;;23.40;41.70;;;;;;6122107;28;20516;-75
2022/07/07 06:35:37;;;;;;;5.10;1.17;;;23.30;41.80;;;;;;6156567;28;20042;-77
2022/07/07 06:38:38;;;;;;;3.25;0.85;;;23.40;41.80;;;;;;6139810;28;20026;-78
2022/07/07 06:41:39;;;;;;;7.65;1.35;;;23.50;41.60;;;;;;6129906;29;20031;-76
2022/07/07 06:44:41;;;;;;;3.15;1.00;;;23.70;41.30;;;;;;6136722;29;20127;-76
2022/07/07 06:47:42;;;;;;;4.78;1.00;;;23.70;41.10;;;;;;6115782;29;20070;-76
2022/07/07 06:50:43;;;;;;;3.38;0.80;;;23.70;41.20;;;;;;6131196;29;20384;-77
2022/07/07 06:53:44;;;;;;;8.45;1.38;;;23.70;41.20;;;;;;6135179;29;20032;-78
2022/07/07 06:56:45;;;;;;;3.03;0.88;;;23.80;41.20;;;;;;6140690;28;20031;-78
2022/07/07 06:59:47;;;;;;;3.95;1.30;;;24.00;41.00;;;;;;6115373;28;20107;-80
2022/07/07 07:02:49;;;;;;;5.47;1.10;;;24.20;40.60;;;;;;6144441;28;20027;-76
2022/07/07 07:05:50;;;;;;;3.28;1.10;;;24.40;40.10;;;;;;6160018;28;20110;-78
2022/07/07 07:08:51;;;;;;;3.00;1.13;;;24.30;40.00;;;;;;6139359;29;20036;-76
2022/07/07 07:11:52;;;;;;;0.80;0.77;;;24.30;40.00;;;;;;6159951;28;20039;-76
2022/07/07 07:14:53;;;;;;;2.38;1.13;;;24.40;39.90;;;;;;6125846;28;20125;-76
2022/07/07 07:17:54;;;;;;;4.45;1.00;;;24.50;39.70;;;;;;6155649;28;20114;-77
2022/07/07 07:20:56;;;;;;;7.03;1.13;;;24.60;39.50;;;;;;6152332;28;20078;-76
2022/07/07 07:23:58;;;;;;;2.00;1.10;;;24.70;39.30;;;;;;6181910;28;20026;-76
2022/07/07 07:26:59;;;;;;;1.77;0.98;;;24.70;39.20;;;;;;6160011;28;20164;-77
2022/07/07 07:30:02;;;;;;;3.33;1.15;;;24.80;39.20;;;;;;6145551;28;20046;-76
2022/07/07 07:33:03;;;;;;;6.13;1.38;;;24.90;39.20;;;;;;6147608;28;20482;-76
2022/07/07 07:36:07;;;;;;;7.95;1.60;;;24.90;39.20;;;;;;6160508;28;20082;-79
2022/07/07 07:39:09;;;;;;;3.88;1.20;;;24.90;39.30;;;;;;6155303;28;20106;-76
2022/07/07 07:42:10;;;;;;;3.17;1.23;;;25.00;39.20;;;;;;6156913;28;20035;-78
2022/07/07 07:45:11;;;;;;;3.13;1.10;;;25.10;39.30;;;;;;6154462;28;20027;-78
2022/07/07 07:48:12;;;;;;;1.40;0.80;;;25.20;39.20;;;;;;6155742;28;20376;-76
2022/07/07 07:51:13;;;;;;;2.63;0.95;;;25.30;39.00;;;;;;6162366;28;20041;-77
2022/07/07 07:54:15;;;;;;;3.60;1.17;;;25.50;38.80;;;;;;6158979;28;20449;-77
2022/07/07 07:57:16;;;;;;;2.10;1.17;;;25.60;38.60;;;;;;6180091;28;20034;-76
2022/07/07 08:00:20;;;;;;;8.07;1.08;;;25.80;38.50;;;;;;6179401;28;20031;-77
2022/07/07 08:03:21;;;;;;;3.50;1.08;;;25.90;38.30;;;;;;6166490;28;20015;-77
2022/07/07 08:06:23;;;;;;;3.15;1.17;;;26.00;38.10;;;;;;6144938;28;20039;-77
2022/07/07 08:09:24;;;;;;;7.68;1.30;;;26.20;37.90;;;;;;6145446;28;20082;-78
2022/07/07 08:12:25;;;;;;;6.68;1.35;;;26.30;37.70;;;;;;6177325;28;20113;-77
2022/07/07 08:15:26;;;;;;;7.28;1.17;;;26.50;37.50;;;;;;6155724;28;20031;-78
2022/07/07 08:18:28;;;;;;;2.55;1.30;;;26.70;37.20;;;;;;6135067;28;20075;-76
2022/07/07 08:21:29;;;;;;;3.67;1.10;;;26.70;37.00;;;;;;6142338;28;20138;-77
2022/07/07 08:24:32;;;;;;;2.55;1.10;;;26.80;36.90;;;;;;6154120;28;20118;-79
2022/07/07 08:27:33;;;;;;;13.25;1.77;;;26.90;36.80;;;;;;6152789;28;20085;-77
2022/07/07 08:30:36;;;;;;;2.95;1.00;;;26.90;36.70;;;;;;6155583;28;20031;-77
2022/07/07 08:33:37;;;;;;;2.97;1.23;;;26.90;36.60;;;;;;6160454;28;20034;-78
2022/07/07 08:36:38;;;;;;;1.67;1.02;;;26.90;36.60;;;;;;6140434;28;20353;-77
2022/07/07 08:39:39;;;;;;;1.58;1.20;;;26.90;36.80;;;;;;6163791;28;20026;-79
2022/07/07 08:42:41;;;;;;;3.75;1.00;;;26.80;36.80;;;;;;6158500;28;20706;-78
2022/07/07 08:45:42;;;;;;;7.10;1.10;;;26.80;36.90;;;;;;6146248;28;20037;-79
2022/07/07 08:48:44;;;;;;;4.15;1.40;;;26.80;36.90;;;;;;6132562;28;20035;-78
2022/07/07 08:51:45;;;;;;;2.50;1.05;;;26.90;36.90;;;;;;6141160;28;20027;-76
2022/07/07 08:54:47;;;;;;;5.70;1.10;;;26.90;36.80;;;;;;6145935;28;20063;-77
2022/07/07 08:57:51;;;;;;;1.95;0.90;;;27.00;36.70;;;;;;6164569;28;20023;-77
2022/07/07 09:00:53;;;;;;;6.15;1.05;;;27.10;36.60;;;;;;6159555;28;20669;-76
2022/07/07 09:03:54;;;;;;;3.25;1.13;;;27.00;36.50;;;;;;6162985;28;20026;-76
2022/07/07 09:06:57;;;;;;;1.75;1.00;;;27.00;36.60;;;;;;6166820;28;20345;-76
2022/07/07 09:09:58;;;;;;;3.28;1.10;;;27.10;36.70;;;;;;6145149;28;20444;-76
2022/07/07 09:13:00;;;;;;;3.10;1.00;;;27.10;36.60;;;;;;6151305;28;20467;-77
2022/07/07 09:16:07;;;;;;;1.95;1.00;;;27.20;36.60;;;;;;6136849;28;20043;-76
2022/07/07 09:19:28;;;;;;;3.05;1.10;;;27.30;36.50;;;;;;6161241;28;20047;-76
2022/07/07 09:22:50;;;;;;;1.58;0.90;;;27.30;36.50;;;;;;6141777;28;20035;-77
2022/07/07 09:25:52;;;;;;;6.47;1.20;;;27.40;36.40;;;;;;6169239;28;20647;-77
2022/07/07 09:28:58;;;;;;;2.35;0.90;;;27.50;36.30;;;;;;6161002;28;20439;-76
2022/07/07 09:32:04;;;;;;;3.25;1.20;;;27.50;36.30;;;;;;6155610;28;20046;-77
2022/07/07 09:38:45;;;;;;;4.65;1.40;;;27.60;36.20;;;;;;6082614;29;20047;-75
2022/07/07 09:41:46;;;;;;;2.28;1.40;;;27.60;36.10;;;;;;6086465;29;20052;-76
2022/07/07 09:44:52;;;;;;;5.25;1.63;;;27.70;36.20;;;;;;6090545;29;20040;-75
2022/07/07 09:47:54;;;;;;;2.15;1.25;;;27.70;36.20;;;;;;6079865;29;20121;-76
2022/07/07 09:51:12;;;;;;;2.58;1.40;;;27.80;36.10;;;;;;6095348;29;20218;-76
2022/07/07 09:54:15;;;;;;;3.27;1.17;;;27.80;36.20;;;;;;6086614;29;20037;-76
2022/07/07 09:57:17;;;;;;;3.97;1.45;;;27.90;36.10;;;;;;6092478;29;20036;-75
2022/07/07 10:00:19;;;;;;;8.20;1.23;;;27.90;35.90;;;;;;6077682;29;20035;-76
2022/07/07 10:03:23;;;;;;;3.25;1.40;;;28.00;35.90;;;;;;6083760;29;20051;-76
2022/07/07 10:06:26;;;;;;;3.92;1.30;;;28.10;35.80;;;;;;6094516;29;20115;-76
2022/07/07 10:09:27;;;;;;;3.13;1.65;;;28.10;35.70;;;;;;6097118;29;20124;-75
2022/07/07 10:12:29;;;;;;;1.60;1.20;;;28.10;35.70;;;;;;6082757;29;20076;-78
2022/07/07 10:15:30;;;;;;;8.43;1.10;;;28.10;35.70;;;;;;6127212;28;20035;-78
2022/07/07 10:18:32;;;;;;;10.07;1.52;;;28.20;35.70;;;;;;6157201;28;20062;-77
2022/07/07 10:21:33;;;;;;;6.88;1.25;;;28.30;35.50;;;;;;6156721;28;20232;-77
2022/07/07 10:24:35;;;;;;;8.80;1.60;;;28.30;35.40;;;;;;6150321;28;20086;-78
2022/07/07 10:27:42;;;;;;;11.05;2.45;;;28.30;35.20;;;;;;6146252;28;20031;-78
2022/07/07 10:30:43;;;;;;;17.02;3.92;;;28.30;35.30;;;;;;6162183;28;20109;-79
2022/07/07 10:33:54;;;;;;;7.70;1.92;;;28.40;35.40;;;;;;6163959;28;20099;-78
2022/07/07 10:37:00;;;;;;;3.67;1.85;;;28.50;35.30;;;;;;6145629;28;20158;-78
2022/07/07 10:40:02;;;;;;;5.22;1.83;;;28.50;35.00;;;;;;6162136;28;20364;-78
2022/07/07 10:43:21;;;;;;;6.75;1.75;;;28.50;35.00;;;;;;6172283;28;20058;-75
2022/07/07 10:46:22;;;;;;;5.28;1.55;;;28.60;35.00;;;;;;6148594;28;20360;-74
2022/07/07 10:49:40;;;;;;;4.57;1.38;;;28.70;34.90;;;;;;6146675;28;20094;-74
2022/07/07 10:52:42;;;;;;;2.40;1.67;;;28.70;34.90;;;;;;6165167;28;20178;-76
2022/07/07 10:55:56;;;;;;;3.63;1.50;;;28.70;34.60;;;;;;6171740;28;20022;-75
2022/07/07 10:59:00;;;;;;;3.03;1.10;;;28.80;34.60;;;;;;6167660;28;20035;-76
2022/07/07 11:02:01;;;;;;;6.15;1.67;;;28.80;34.40;;;;;;6153561;28;20023;-75
2022/07/07 11:05:24;;;;;;;3.58;1.25;;;28.80;34.40;;;;;;6163037;28;20026;-75
2022/07/07 11:08:36;;;;;;;4.53;1.48;;;28.90;34.40;;;;;;6144046;28;20074;-75
2022/07/07 11:11:37;;;;;;;2.47;1.00;;;29.40;33.70;;;;;;6153048;28;20066;-76
2022/07/07 11:14:38;;;;;;;3.60;1.17;;;30.30;32.40;;;;;;6168045;28;20081;-76
2022/07/07 11:17:39;;;;;;;2.45;1.35;;;31.10;31.00;;;;;;6179412;28;20102;-77
2022/07/07 11:21:02;;;;;;;3.58;1.20;;;31.90;30.20;;;;;;6153677;28;20035;-75
2022/07/07 11:24:17;;;;;;;2.45;1.38;;;32.60;29.40;;;;;;6154213;28;20161;-76
2022/07/07 11:27:27;;;;;;;2.42;1.30;;;33.10;28.70;;;;;;6170445;28;20022;-75
2022/07/07 11:30:29;;;;;;;5.55;1.30;;;33.50;28.30;;;;;;6153518;28;20040;-75
2022/07/07 11:33:30;;;;;;;5.85;1.40;;;33.70;28.00;;;;;;6168461;28;20444;-76
2022/07/07 11:36:31;;;;;;;2.38;1.05;;;33.80;27.80;;;;;;6150254;28;20047;-76
2022/07/07 11:39:32;;;;;;;3.33;1.38;;;34.00;27.60;;;;;;6164980;28;20058;-76
2022/07/07 11:42:37;;;;;;;3.00;1.23;;;34.20;27.60;;;;;;6136059;28;20022;-76
2022/07/07 11:45:38;;;;;;;10.77;1.48;;;34.40;27.00;;;;;;6155871;28;20030;-75
2022/07/07 11:48:41;;;;;;;6.40;1.15;;;34.40;27.00;;;;;;6151118;28;20033;-76
2022/07/07 11:51:44;;;;;;;1.70;0.93;;;34.40;26.90;;;;;;6137527;28;20122;-76
2022/07/07 11:54:48;;;;;;;12.85;1.50;;;34.30;26.90;;;;;;6135793;28;20027;-75
2022/07/07 11:57:59;;;;;;;5.45;1.10;;;34.20;26.90;;;;;;6150972;28;20030;-77
2022/07/07 12:01:00;;;;;;;2.75;1.13;;;34.10;27.00;;;;;;6151666;28;20094;-76
2022/07/07 12:04:15;;;;;;;7.55;1.60;;;34.10;27.10;;;;;;6135824;28;20496;-75
2022/07/07 12:07:16;;;;;;;13.55;1.52;;;34.20;27.50;;;;;;6168315;28;20038;-75
2022/07/07 12:10:33;;;;;;;2.45;1.20;;;34.30;26.90;;;;;;6154141;28;20039;-75
2022/07/07 12:13:34;;;;;;;1.85;1.00;;;34.40;26.70;;;;;;6170932;28;20039;-75
2022/07/07 12:16:42;;;;;;;4.45;1.10;;;34.60;26.50;;;;;;6164924;28;20034;-75
2022/07/07 12:19:47;;;;;;;5.03;1.00;;;34.70;26.50;;;;;;6143118;28;20051;-76
2022/07/07 12:22:59;;;;;;;14.43;1.30;;;34.90;26.20;;;;;;6132821;28;20027;-76
2022/07/07 12:26:21;;;;;;;3.25;0.95;;;35.20;25.60;;;;;;6168376;28;20076;-77
2022/07/07 12:29:22;;;;;;;4.35;1.05;;;35.10;25.50;;;;;;6153318;28;20041;-76
2022/07/07 12:32:24;;;;;;;7.97;1.10;;;35.00;25.40;;;;;;6161689;28;20353;-74
2022/07/07 12:35:29;;;;;;;6.00;1.00;;;34.80;25.50;;;;;;6141431;28;20030;-76
2022/07/07 12:38:47;;;;;;;5.43;1.05;;;34.70;25.70;;;;;;6161906;28;20022;-74
2022/07/07 12:41:53;;;;;;;12.68;1.25;;;34.80;25.50;;;;;;6150233;28;20031;-74
2022/07/07 12:45:14;;;;;;;6.82;0.98;;;34.90;25.20;;;;;;6173918;28;20027;-74
2022/07/07 12:48:16;;;;;;;4.22;1.10;;;34.80;25.20;;;;;;6157473;28;20038;-76
2022/07/07 12:51:28;;;;;;;3.78;1.02;;;34.60;25.20;;;;;;6175051;28;20062;-77
2022/07/07 12:54:31;;;;;;;2.63;1.00;;;34.60;25.40;;;;;;6157439;28;20058;-75
2022/07/07 12:57:32;;;;;;;2.03;0.85;;;34.90;25.30;;;;;;6157932;28;20031;-77
2022/07/07 13:00:33;;;;;;;7.80;1.13;;;35.10;25.00;;;;;;6173436;28;20097;-76
2022/07/07 13:03:34;;;;;;;7.32;0.98;;;35.30;24.70;;;;;;6155826;28;20035;-75
2022/07/07 13:06:35;;;;;;;6.15;0.90;;;35.30;24.50;;;;;;6172176;28;20027;-76
2022/07/07 13:09:37;;;;;;;5.00;1.02;;;35.50;24.50;;;;;;6143124;28;20055;-76
2022/07/07 13:12:39;;;;;;;12.07;1.40;;;35.60;24.30;;;;;;6144021;28;20066;-75
2022/07/07 13:15:41;;;;;;;1.75;0.90;;;35.60;24.10;;;;;;6172065;28;20097;-77
2022/07/07 13:18:42;;;;;;;5.10;0.80;;;35.80;24.00;;;;;;6163404;28;20122;-76
2022/07/07 13:21:43;;;;;;;5.32;0.80;;;36.00;23.70;;;;;;6174710;28;20026;-76
2022/07/07 13:24:44;;;;;;;2.05;0.95;;;36.20;23.50;;;;;;6171946;28;20027;-76
2022/07/07 13:27:45;;;;;;;3.50;1.13;;;36.60;23.40;;;;;;6171442;28;20069;-76
2022/07/07 13:30:46;;;;;;;3.33;1.02;;;37.00;23.10;;;;;;6146439;28;20049;-75
2022/07/07 13:33:47;;;;;;;2.25;0.98;;;37.30;22.90;;;;;;6154067;28;20026;-75
2022/07/07 13:36:48;;;;;;;0.70;0.70;;;37.50;23.10;;;;;;6133619;28;20110;-76
2022/07/07 13:39:49;;;;;;;2.85;0.90;;;37.70;22.40;;;;;;6168591;28;20039;-75
2022/07/07 13:42:50;;;;;;;5.82;1.20;;;37.80;22.40;;;;;;6163338;28;20026;-76
2022/07/07 13:45:51;;;;;;;9.23;1.08;;;38.00;22.20;;;;;;6169524;28;20049;-76
2022/07/07 13:48:52;;;;;;;9.60;1.58;;;38.10;22.20;;;;;;6156205;28;20456;-75
2022/07/07 13:51:54;;;;;;;2.88;0.93;;;38.30;22.50;;;;;;6170762;28;20034;-75
2022/07/07 13:54:55;;;;;;;7.05;0.77;;;38.70;21.80;;;;;;6146539;28;20035;-75
2022/07/07 13:57:56;;;;;;;1.27;0.70;;;39.10;21.40;;;;;;6151636;28;20035;-75
2022/07/07 14:00:57;;;;;;;7.47;1.02;;;39.40;21.10;;;;;;6168110;28;20023;-75
2022/07/07 14:03:58;;;;;;;1.95;0.63;;;39.80;20.90;;;;;;6169996;28;20463;-75
2022/07/07 14:06:59;;;;;;;5.03;1.17;;;40.00;20.60;;;;;;6137156;28;20027;-75
2022/07/07 14:10:00;;;;;;;1.80;0.75;;;40.30;20.50;;;;;;6156675;28;20340;-76
2022/07/07 14:13:02;;;;;;;2.53;0.80;;;40.60;20.20;;;;;;6153878;28;20030;-76
2022/07/07 14:16:04;;;;;;;4.97;0.98;;;40.60;20.00;;;;;;6162395;28;20130;-75
2022/07/07 14:19:06;;;;;;;1.42;0.80;;;40.70;20.00;;;;;;6122842;29;20051;-75
2022/07/07 14:22:09;;;;;;;2.58;0.90;;;40.80;20.00;;;;;;6147736;28;20037;-78
2022/07/07 14:25:12;;;;;;;9.30;1.30;;;40.80;20.00;;;;;;6132148;28;20034;-76
2022/07/07 14:28:13;;;;;;;4.53;0.85;;;40.90;20.00;;;;;;6142626;28;20034;-76
2022/07/07 14:31:14;;;;;;;1.90;0.73;;;41.00;20.00;;;;;;6131057;28;20109;-75
2022/07/07 14:34:15;;;;;;;0.82;0.60;;;41.00;19.80;;;;;;6136285;28;20372;-75
2022/07/07 14:37:16;;;;;;;1.33;0.80;;;40.90;19.80;;;;;;6148735;28;20042;-75
2022/07/07 14:40:17;;;;;;;2.65;0.82;;;40.80;19.80;;;;;;6136759;28;20024;-77
2022/07/07 14:43:18;;;;;;;2.42;0.73;;;40.90;19.80;;;;;;6141886;28;20037;-76
2022/07/07 14:46:19;;;;;;;2.10;0.65;;;40.80;19.70;;;;;;6132150;29;20373;-76
2022/07/07 14:49:20;;;;;;;4.30;0.88;;;40.80;19.80;;;;;;6129527;29;20035;-75
2022/07/07 14:52:21;;;;;;;3.00;0.98;;;40.70;20.30;;;;;;6114884;28;20035;-75
2022/07/07 14:55:24;;;;;;;6.63;1.00;;;40.70;19.80;;;;;;6144417;28;20484;-76
2022/07/07 14:58:25;;;;;;;0.68;0.68;;;40.70;19.90;;;;;;6135338;29;20037;-76
2022/07/07 15:01:26;;;;;;;1.38;0.70;;;40.60;19.90;;;;;;6135722;28;20057;-75
2022/07/07 15:04:27;;;;;;;4.07;1.02;;;40.50;20.00;;;;;;6136039;28;20437;-76
2022/07/07 15:07:28;;;;;;;2.28;0.77;;;40.30;20.10;;;;;;6110495;29;20067;-75
2022/07/07 15:10:31;;;;;;;2.13;0.50;;;40.40;20.10;;;;;;6131866;28;20031;-74
2022/07/07 15:13:32;;;;;;;13.13;0.90;;;40.30;20.20;;;;;;6135477;29;20065;-75
2022/07/07 15:16:34;;;;;;;0.60;0.60;;;40.00;20.40;;;;;;6115840;28;20574;-75
2022/07/07 15:19:35;;;;;;;2.25;0.77;;;39.60;20.60;;;;;;6157979;28;20047;-74
2022/07/07 15:22:36;;;;;;;3.78;0.63;;;39.40;20.90;;;;;;6158558;28;20337;-76
2022/07/07 15:25:37;;;;;;;0.80;0.70;;;39.50;20.90;;;;;;6152781;28;20035;-76
2022/07/07 15:28:38;;;;;;;2.40;0.90;;;39.40;21.00;;;;;;6152956;28;20039;-75
2022/07/07 15:31:45;;;;;;;1.55;0.57;;;39.30;21.10;;;;;;6155973;28;20027;-76
2022/07/07 15:34:46;;;;;;;1.88;0.88;;;39.20;21.10;;;;;;6156118;28;20051;-77
2022/07/07 15:37:47;;;;;;;2.10;0.80;;;39.00;21.20;;;;;;6138186;28;20039;-77
2022/07/07 15:40:48;;;;;;;3.38;0.90;;;38.80;21.50;;;;;;6152380;28;20032;-76
2022/07/07 15:43:49;;;;;;;5.18;0.90;;;38.80;21.50;;;;;;6159880;28;20059;-77
2022/07/07 15:46:51;;;;;;;9.75;0.80;;;38.90;21.60;;;;;;6152129;28;20037;-76
2022/07/07 15:49:53;;;;;;;1.20;0.80;;;38.80;21.50;;;;;;6146382;28;20023;-77
2022/07/07 15:52:54;;;;;;;1.50;0.73;;;38.90;21.50;;;;;;6146826;28;20043;-77